sensor_id;sensor_type;location;lat;lon;timestamp;pressure;altitude;pressure_sealevel;temperature;humidity
58785;BME280;44557;51.862;19.378;2023-03-13T00:00:24;98594.92;;;2.11;93.24
58785;BME280;44557;51.862;19.378;2023-03-13T00:02:44;98588.05;;;2.12;93.41
58785;BME280;44557;51.862;19.378;2023-03-13T00:04:45;98578.52;;;2.20;93.45
58785;BME280;44557;51.862;19.378;2023-03-13T00:06:46;98576.05;;;2.14;93.31
58785;BME280;44557;51.862;19.378;2023-03-13T00:08:47;98570.82;;;2.10;94.01
58785;BME280;44557;51.862;19.378;2023-03-13T00:10:48;98576.55;;;2.20;93.42
58785;BME280;44557;51.862;19.378;2023-03-13T00:12:49;98571.66;;;2.24;93.62
58785;BME280;44557;51.862;19.378;2023-03-13T00:14:50;98566.45;;;2.17;93.72
58785;BME280;44557;51.862;19.378;2023-03-13T00:16:51;98562.48;;;2.17;93.53
58785;BME280;44557;51.862;19.378;2023-03-13T00:18:53;98567.50;;;2.17;93.53
58785;BME280;44557;51.862;19.378;2023-03-13T00:21:03;98569.83;;;2.21;93.23
58785;BME280;44557;51.862;19.378;2023-03-13T00:23:04;98574.90;;;2.14;93.49
58785;BME280;44557;51.862;19.378;2023-03-13T00:25:06;98577.54;;;2.02;94.15
58785;BME280;44557;51.862;19.378;2023-03-13T00:27:07;98575.02;;;2.15;93.60
58785;BME280;44557;51.862;19.378;2023-03-13T00:29:08;98570.32;;;2.15;93.56
58785;BME280;44557;51.862;19.378;2023-03-13T00:31:24;98574.73;;;2.17;93.77
58785;BME280;44557;51.862;19.378;2023-03-13T00:33:26;98583.77;;;1.99;94.55
58785;BME280;44557;51.862;19.378;2023-03-13T00:35:27;98582.30;;;2.12;94.07
58785;BME280;44557;51.862;19.378;2023-03-13T00:37:30;98575.89;;;2.15;93.97
58785;BME280;44557;51.862;19.378;2023-03-13T00:39:31;98573.95;;;2.05;94.18
58785;BME280;44557;51.862;19.378;2023-03-13T00:41:32;98566.52;;;2.02;94.41
58785;BME280;44557;51.862;19.378;2023-03-13T00:43:34;98566.56;;;2.03;94.44
58785;BME280;44557;51.862;19.378;2023-03-13T00:45:35;98561.17;;;2.01;94.65
58785;BME280;44557;51.862;19.378;2023-03-13T00:47:36;98555.16;;;1.96;94.79
58785;BME280;44557;51.862;19.378;2023-03-13T00:49:37;98547.67;;;1.88;95.18
58785;BME280;44557;51.862;19.378;2023-03-13T00:51:37;98541.27;;;2.02;94.96
58785;BME280;44557;51.862;19.378;2023-03-13T00:53:39;98547.09;;;1.93;95.16
58785;BME280;44557;51.862;19.378;2023-03-13T00:55:50;98542.55;;;2.03;94.93
58785;BME280;44557;51.862;19.378;2023-03-13T00:57:52;98547.91;;;1.97;95.46
58785;BME280;44557;51.862;19.378;2023-03-13T00:59:53;98540.83;;;1.92;95.43
58785;BME280;44557;51.862;19.378;2023-03-13T01:01:54;98543.41;;;2.07;94.98
58785;BME280;44557;51.862;19.378;2023-03-13T01:03:57;98535.47;;;2.10;94.47
58785;BME280;44557;51.862;19.378;2023-03-13T01:06:00;98538.41;;;1.88;95.93
58785;BME280;44557;51.862;19.378;2023-03-13T01:08:01;98533.70;;;1.95;96.30
58785;BME280;44557;51.862;19.378;2023-03-13T01:10:02;98533.23;;;2.04;94.98
58785;BME280;44557;51.862;19.378;2023-03-13T01:12:04;98530.83;;;2.08;95.55
58785;BME280;44557;51.862;19.378;2023-03-13T01:14:09;98533.70;;;2.07;95.08
58785;BME280;44557;51.862;19.378;2023-03-13T01:16:19;98531.90;;;2.01;95.65
58785;BME280;44557;51.862;19.378;2023-03-13T01:18:20;98530.14;;;2.04;95.72
58785;BME280;44557;51.862;19.378;2023-03-13T01:20:22;98528.30;;;2.03;95.99
58785;BME280;44557;51.862;19.378;2023-03-13T01:22:22;98526.20;;;2.09;95.53
58785;BME280;44557;51.862;19.378;2023-03-13T01:24:24;98525.88;;;2.04;95.49
58785;BME280;44557;51.862;19.378;2023-03-13T01:26:25;98528.48;;;1.99;96.48
58785;BME280;44557;51.862;19.378;2023-03-13T01:28:27;98526.91;;;2.11;95.37
58785;BME280;44557;51.862;19.378;2023-03-13T01:30:28;98531.77;;;2.22;95.62
58785;BME280;44557;51.862;19.378;2023-03-13T01:32:32;98532.06;;;2.05;95.85
58785;BME280;44557;51.862;19.378;2023-03-13T01:34:32;98529.85;;;1.98;96.38
58785;BME280;44557;51.862;19.378;2023-03-13T01:36:35;98524.61;;;2.24;95.89
58785;BME280;44557;51.862;19.378;2023-03-13T01:38:37;98520.67;;;2.16;95.95
58785;BME280;44557;51.862;19.378;2023-03-13T01:40:46;98512.98;;;2.05;96.38
58785;BME280;44557;51.862;19.378;2023-03-13T01:42:54;98510.17;;;2.07;96.83
58785;BME280;44557;51.862;19.378;2023-03-13T01:44:56;98508.09;;;1.99;97.11
58785;BME280;44557;51.862;19.378;2023-03-13T01:46:57;98508.48;;;2.07;97.12
58785;BME280;44557;51.862;19.378;2023-03-13T01:49:07;98505.53;;;2.04;97.13
58785;BME280;44557;51.862;19.378;2023-03-13T01:53:40;98503.05;;;2.15;97.61
58785;BME280;44557;51.862;19.378;2023-03-13T01:55:42;98498.95;;;2.06;98.10
58785;BME280;44557;51.862;19.378;2023-03-13T01:57:47;98501.41;;;2.07;98.35
58785;BME280;44557;51.862;19.378;2023-03-13T01:59:55;98499.46;;;2.16;98.37
58785;BME280;44557;51.862;19.378;2023-03-13T02:01:59;98494.00;;;2.24;97.59
58785;BME280;44557;51.862;19.378;2023-03-13T02:04:02;98496.95;;;2.12;98.19
58785;BME280;44557;51.862;19.378;2023-03-13T02:06:05;98494.89;;;2.12;98.47
58785;BME280;44557;51.862;19.378;2023-03-13T02:08:23;98491.13;;;2.08;98.58
58785;BME280;44557;51.862;19.378;2023-03-13T02:10:25;98496.02;;;2.22;98.25
58785;BME280;44557;51.862;19.378;2023-03-13T02:12:34;98505.83;;;2.19;98.00
58785;BME280;44557;51.862;19.378;2023-03-13T02:14:37;98501.77;;;2.26;97.85
58785;BME280;44557;51.862;19.378;2023-03-13T02:16:41;98498.50;;;2.25;98.04
58785;BME280;44557;51.862;19.378;2023-03-13T02:18:47;98499.60;;;2.18;98.57
58785;BME280;44557;51.862;19.378;2023-03-13T02:20:50;98504.60;;;2.24;98.52
58785;BME280;44557;51.862;19.378;2023-03-13T02:23:05;98498.08;;;2.16;99.04
58785;BME280;44557;51.862;19.378;2023-03-13T02:27:15;98503.56;;;2.22;99.47
58785;BME280;44557;51.862;19.378;2023-03-13T02:29:16;98508.77;;;2.33;98.86
58785;BME280;44557;51.862;19.378;2023-03-13T02:31:20;98504.69;;;2.43;98.35
58785;BME280;44557;51.862;19.378;2023-03-13T02:33:28;98505.64;;;2.40;98.10
58785;BME280;44557;51.862;19.378;2023-03-13T02:35:30;98512.83;;;2.38;98.39
58785;BME280;44557;51.862;19.378;2023-03-13T02:37:32;98507.86;;;2.44;98.07
58785;BME280;44557;51.862;19.378;2023-03-13T02:39:34;98507.88;;;2.41;98.17
58785;BME280;44557;51.862;19.378;2023-03-13T02:41:35;98510.20;;;2.47;98.10
58785;BME280;44557;51.862;19.378;2023-03-13T02:43:37;98512.02;;;2.47;98.26
58785;BME280;44557;51.862;19.378;2023-03-13T02:45:38;98508.30;;;2.50;97.72
58785;BME280;44557;51.862;19.378;2023-03-13T02:47:39;98507.92;;;2.55;98.34
58785;BME280;44557;51.862;19.378;2023-03-13T02:49:40;98499.48;;;2.54;98.16
58785;BME280;44557;51.862;19.378;2023-03-13T02:51:42;98502.44;;;2.49;98.47
58785;BME280;44557;51.862;19.378;2023-03-13T02:53:48;98504.95;;;2.53;98.26
58785;BME280;44557;51.862;19.378;2023-03-13T02:55:50;98508.13;;;2.61;97.89
58785;BME280;44557;51.862;19.378;2023-03-13T02:57:50;98506.27;;;2.71;98.09
58785;BME280;44557;51.862;19.378;2023-03-13T02:59:51;98510.90;;;2.57;97.82
58785;BME280;44557;51.862;19.378;2023-03-13T03:01:52;98516.64;;;2.62;98.49
58785;BME280;44557;51.862;19.378;2023-03-13T03:03:54;98517.98;;;2.65;98.55
58785;BME280;44557;51.862;19.378;2023-03-13T03:05:55;98515.26;;;2.57;99.05
58785;BME280;44557;51.862;19.378;2023-03-13T03:07:56;98520.05;;;2.57;99.43
58785;BME280;44557;51.862;19.378;2023-03-13T03:09:57;98512.80;;;2.60;99.39
58785;BME280;44557;51.862;19.378;2023-03-13T03:11:58;98517.91;;;2.65;99.53
58785;BME280;44557;51.862;19.378;2023-03-13T03:13:58;98516.46;;;2.65;99.61
58785;BME280;44557;51.862;19.378;2023-03-13T03:16:05;98515.20;;;2.71;99.83
58785;BME280;44557;51.862;19.378;2023-03-13T03:18:06;98521.45;;;2.78;99.40
58785;BME280;44557;51.862;19.378;2023-03-13T03:20:07;98518.51;;;2.88;99.17
58785;BME280;44557;51.862;19.378;2023-03-13T03:22:11;98517.63;;;2.83;99.11
58785;BME280;44557;51.862;19.378;2023-03-13T03:24:12;98514.41;;;2.74;99.84
58785;BME280;44557;51.862;19.378;2023-03-13T03:26:13;98513.57;;;2.84;99.83
58785;BME280;44557;51.862;19.378;2023-03-13T03:28:14;98516.65;;;2.83;99.89
58785;BME280;44557;51.862;19.378;2023-03-13T03:30:14;98513.70;;;2.81;99.84
58785;BME280;44557;51.862;19.378;2023-03-13T03:32:15;98507.55;;;2.70;100.00
58785;BME280;44557;51.862;19.378;2023-03-13T03:34:17;98511.77;;;2.86;100.00
58785;BME280;44557;51.862;19.378;2023-03-13T03:36:20;98505.27;;;2.89;99.90
58785;BME280;44557;51.862;19.378;2023-03-13T03:38:21;98505.85;;;2.91;99.88
58785;BME280;44557;51.862;19.378;2023-03-13T03:40:22;98507.89;;;2.92;99.89
58785;BME280;44557;51.862;19.378;2023-03-13T03:42:24;98507.56;;;3.04;99.96
58785;BME280;44557;51.862;19.378;2023-03-13T03:44:25;98507.60;;;3.03;99.88
58785;BME280;44557;51.862;19.378;2023-03-13T03:46:26;98504.34;;;3.05;99.95
58785;BME280;44557;51.862;19.378;2023-03-13T03:48:27;98502.04;;;2.96;99.98
58785;BME280;44557;51.862;19.378;2023-03-13T03:50:29;98498.73;;;3.03;100.00
58785;BME280;44557;51.862;19.378;2023-03-13T03:52:29;98497.96;;;3.02;99.96
58785;BME280;44557;51.862;19.378;2023-03-13T03:54:31;98493.46;;;3.10;100.00
58785;BME280;44557;51.862;19.378;2023-03-13T03:56:32;98493.06;;;3.07;100.00
58785;BME280;44557;51.862;19.378;2023-03-13T03:58:33;98484.25;;;3.21;99.88
58785;BME280;44557;51.862;19.378;2023-03-13T04:00:34;98487.45;;;3.20;99.97
58785;BME280;44557;51.862;19.378;2023-03-13T04:02:36;98485.55;;;3.26;99.83
58785;BME280;44557;51.862;19.378;2023-03-13T04:04:37;98483.27;;;3.38;99.55
58785;BME280;44557;51.862;19.378;2023-03-13T04:06:38;98480.25;;;3.37;99.79
58785;BME280;44557;51.862;19.378;2023-03-13T04:08:39;98474.31;;;3.39;99.74
58785;BME280;44557;51.862;19.378;2023-03-13T04:10:40;98477.62;;;3.33;99.75
58785;BME280;44557;51.862;19.378;2023-03-13T04:12:41;98480.23;;;3.44;99.94
58785;BME280;44557;51.862;19.378;2023-03-13T04:14:42;98481.84;;;3.52;99.67
58785;BME280;44557;51.862;19.378;2023-03-13T04:16:43;98489.49;;;3.48;99.93
58785;BME280;44557;51.862;19.378;2023-03-13T04:18:44;98479.60;;;3.42;99.98
58785;BME280;44557;51.862;19.378;2023-03-13T04:20:45;98482.25;;;3.53;99.87
58785;BME280;44557;51.862;19.378;2023-03-13T04:22:46;98486.29;;;3.46;100.00
58785;BME280;44557;51.862;19.378;2023-03-13T04:24:47;98483.02;;;3.44;100.00
58785;BME280;44557;51.862;19.378;2023-03-13T04:26:48;98481.36;;;3.52;100.00
58785;BME280;44557;51.862;19.378;2023-03-13T04:28:49;98479.09;;;3.52;100.00
58785;BME280;44557;51.862;19.378;2023-03-13T04:30:50;98477.92;;;3.46;100.00
58785;BME280;44557;51.862;19.378;2023-03-13T04:32:52;98474.86;;;3.56;100.00
58785;BME280;44557;51.862;19.378;2023-03-13T04:34:54;98477.09;;;3.59;100.00
58785;BME280;44557;51.862;19.378;2023-03-13T04:36:55;98475.73;;;3.74;100.00
58785;BME280;44557;51.862;19.378;2023-03-13T04:38:56;98467.89;;;3.80;100.00
58785;BME280;44557;51.862;19.378;2023-03-13T04:40:57;98468.17;;;3.76;100.00
58785;BME280;44557;51.862;19.378;2023-03-13T04:42:58;98472.76;;;3.65;100.00
58785;BME280;44557;51.862;19.378;2023-03-13T04:44:58;98466.86;;;3.67;100.00
58785;BME280;44557;51.862;19.378;2023-03-13T04:46:59;98475.91;;;3.75;100.00
58785;BME280;44557;51.862;19.378;2023-03-13T04:49:01;98478.45;;;3.87;100.00
58785;BME280;44557;51.862;19.378;2023-03-13T04:51:03;98476.86;;;3.82;100.00
58785;BME280;44557;51.862;19.378;2023-03-13T04:53:04;98473.34;;;3.93;100.00
58785;BME280;44557;51.862;19.378;2023-03-13T04:55:05;98472.54;;;3.80;100.00
58785;BME280;44557;51.862;19.378;2023-03-13T04:57:06;98468.11;;;3.76;100.00
58785;BME280;44557;51.862;19.378;2023-03-13T04:59:08;98469.10;;;3.84;100.00
58785;BME280;44557;51.862;19.378;2023-03-13T05:01:09;98464.64;;;3.84;100.00
58785;BME280;44557;51.862;19.378;2023-03-13T05:03:10;98468.81;;;3.94;100.00
58785;BME280;44557;51.862;19.378;2023-03-13T05:05:11;98469.03;;;3.94;100.00
58785;BME280;44557;51.862;19.378;2023-03-13T05:07:12;98466.73;;;3.91;100.00
58785;BME280;44557;51.862;19.378;2023-03-13T05:09:12;98463.70;;;3.61;100.00
58785;BME280;44557;51.862;19.378;2023-03-13T05:11:13;98466.23;;;3.53;100.00
58785;BME280;44557;51.862;19.378;2023-03-13T05:13:15;98463.69;;;3.43;100.00
58785;BME280;44557;51.862;19.378;2023-03-13T05:15:16;98454.98;;;3.24;100.00
58785;BME280;44557;51.862;19.378;2023-03-13T05:17:17;98453.32;;;2.99;100.00
58785;BME280;44557;51.862;19.378;2023-03-13T05:19:17;98448.63;;;3.09;100.00
58785;BME280;44557;51.862;19.378;2023-03-13T05:21:18;98447.78;;;3.21;100.00
58785;BME280;44557;51.862;19.378;2023-03-13T05:23:19;98442.45;;;3.32;100.00
58785;BME280;44557;51.862;19.378;2023-03-13T05:25:20;98439.77;;;3.36;100.00
58785;BME280;44557;51.862;19.378;2023-03-13T05:27:21;98436.63;;;3.38;100.00
58785;BME280;44557;51.862;19.378;2023-03-13T05:29:22;98436.63;;;3.31;100.00
58785;BME280;44557;51.862;19.378;2023-03-13T05:31:23;98435.60;;;3.34;100.00
58785;BME280;44557;51.862;19.378;2023-03-13T05:33:24;98432.30;;;3.43;100.00
58785;BME280;44557;51.862;19.378;2023-03-13T05:35:25;98427.05;;;3.44;100.00
58785;BME280;44557;51.862;19.378;2023-03-13T05:37:26;98419.79;;;3.55;100.00
58785;BME280;44557;51.862;19.378;2023-03-13T05:39:27;98415.00;;;3.63;100.00
58785;BME280;44557;51.862;19.378;2023-03-13T05:41:28;98417.83;;;3.58;100.00
58785;BME280;44557;51.862;19.378;2023-03-13T05:43:29;98424.14;;;3.60;100.00
58785;BME280;44557;51.862;19.378;2023-03-13T05:45:30;98426.24;;;3.62;100.00
58785;BME280;44557;51.862;19.378;2023-03-13T05:47:31;98426.21;;;3.61;100.00
58785;BME280;44557;51.862;19.378;2023-03-13T05:49:32;98424.17;;;3.73;100.00
58785;BME280;44557;51.862;19.378;2023-03-13T05:51:33;98424.85;;;3.67;100.00
58785;BME280;44557;51.862;19.378;2023-03-13T05:53:34;98424.63;;;3.86;100.00
58785;BME280;44557;51.862;19.378;2023-03-13T05:55:35;98426.64;;;4.17;100.00
58785;BME280;44557;51.862;19.378;2023-03-13T05:57:37;98428.63;;;4.27;100.00
58785;BME280;44557;51.862;19.378;2023-03-13T05:59:39;98421.33;;;4.48;100.00
58785;BME280;44557;51.862;19.378;2023-03-13T06:01:39;98421.15;;;4.55;100.00
58785;BME280;44557;51.862;19.378;2023-03-13T06:03:41;98420.33;;;4.65;100.00
58785;BME280;44557;51.862;19.378;2023-03-13T06:05:41;98417.05;;;4.64;100.00
58785;BME280;44557;51.862;19.378;2023-03-13T06:07:43;98421.73;;;4.77;100.00
58785;BME280;44557;51.862;19.378;2023-03-13T06:09:44;98421.98;;;4.72;100.00
58785;BME280;44557;51.862;19.378;2023-03-13T06:11:45;98420.25;;;4.76;100.00
58785;BME280;44557;51.862;19.378;2023-03-13T06:13:45;98416.86;;;4.80;100.00
58785;BME280;44557;51.862;19.378;2023-03-13T06:15:51;98416.05;;;4.84;100.00
58785;BME280;44557;51.862;19.378;2023-03-13T06:17:52;98419.09;;;4.96;100.00
58785;BME280;44557;51.862;19.378;2023-03-13T06:19:53;98412.93;;;4.94;100.00
58785;BME280;44557;51.862;19.378;2023-03-13T06:21:54;98412.50;;;4.97;100.00
58785;BME280;44557;51.862;19.378;2023-03-13T06:23:55;98413.98;;;4.99;100.00
58785;BME280;44557;51.862;19.378;2023-03-13T06:25:56;98411.02;;;5.03;100.00
58785;BME280;44557;51.862;19.378;2023-03-13T06:27:57;98406.53;;;5.12;100.00
58785;BME280;44557;51.862;19.378;2023-03-13T06:29:58;98404.94;;;5.22;100.00
58785;BME280;44557;51.862;19.378;2023-03-13T06:32:00;98407.20;;;5.26;100.00
58785;BME280;44557;51.862;19.378;2023-03-13T06:34:01;98400.57;;;5.18;100.00
58785;BME280;44557;51.862;19.378;2023-03-13T06:36:02;98400.19;;;5.31;100.00
58785;BME280;44557;51.862;19.378;2023-03-13T06:38:04;98400.80;;;5.24;100.00
58785;BME280;44557;51.862;19.378;2023-03-13T06:40:05;98397.19;;;5.37;100.00
58785;BME280;44557;51.862;19.378;2023-03-13T06:42:06;98392.47;;;5.55;100.00
58785;BME280;44557;51.862;19.378;2023-03-13T06:44:07;98393.12;;;5.60;100.00
58785;BME280;44557;51.862;19.378;2023-03-13T06:46:16;98391.70;;;5.62;99.96
58785;BME280;44557;51.862;19.378;2023-03-13T06:48:17;98396.58;;;5.56;99.98
58785;BME280;44557;51.862;19.378;2023-03-13T06:50:19;98392.23;;;5.75;99.73
58785;BME280;44557;51.862;19.378;2023-03-13T06:52:19;98393.14;;;5.65;99.90
58785;BME280;44557;51.862;19.378;2023-03-13T06:54:20;98395.14;;;5.58;100.00
58785;BME280;44557;51.862;19.378;2023-03-13T06:56:22;98405.29;;;5.53;100.00
58785;BME280;44557;51.862;19.378;2023-03-13T06:58:23;98404.45;;;5.63;100.00
58785;BME280;44557;51.862;19.378;2023-03-13T07:00:24;98401.35;;;5.70;99.99
58785;BME280;44557;51.862;19.378;2023-03-13T07:02:25;98402.63;;;5.68;99.97
58785;BME280;44557;51.862;19.378;2023-03-13T07:04:26;98403.15;;;5.79;99.91
58785;BME280;44557;51.862;19.378;2023-03-13T07:06:27;98406.21;;;5.97;99.35
58785;BME280;44557;51.862;19.378;2023-03-13T07:08:28;98405.91;;;5.99;98.74
58785;BME280;44557;51.862;19.378;2023-03-13T07:10:30;98409.13;;;5.95;99.07
58785;BME280;44557;51.862;19.378;2023-03-13T07:12:31;98409.02;;;5.92;99.34
58785;BME280;44557;51.862;19.378;2023-03-13T07:14:31;98408.48;;;5.85;99.77
58785;BME280;44557;51.862;19.378;2023-03-13T07:16:32;98408.61;;;5.87;99.93
58785;BME280;44557;51.862;19.378;2023-03-13T07:18:34;98406.70;;;5.82;99.98
58785;BME280;44557;51.862;19.378;2023-03-13T07:20:35;98403.80;;;5.79;100.00
58785;BME280;44557;51.862;19.378;2023-03-13T07:22:36;98404.42;;;5.81;99.96
58785;BME280;44557;51.862;19.378;2023-03-13T07:24:38;98407.34;;;5.89;100.00
58785;BME280;44557;51.862;19.378;2023-03-13T07:26:38;98403.70;;;5.89;100.00
58785;BME280;44557;51.862;19.378;2023-03-13T07:28:40;98402.10;;;5.97;99.99
58785;BME280;44557;51.862;19.378;2023-03-13T07:30:41;98395.89;;;5.92;100.00
58785;BME280;44557;51.862;19.378;2023-03-13T07:32:42;98392.52;;;6.00;100.00
58785;BME280;44557;51.862;19.378;2023-03-13T07:34:43;98388.00;;;6.01;99.94
58785;BME280;44557;51.862;19.378;2023-03-13T07:36:44;98384.70;;;6.00;100.00
58785;BME280;44557;51.862;19.378;2023-03-13T07:38:49;98384.41;;;6.05;99.99
58785;BME280;44557;51.862;19.378;2023-03-13T07:40:56;98376.28;;;6.13;99.80
58785;BME280;44557;51.862;19.378;2023-03-13T07:42:57;98373.88;;;6.23;99.62
58785;BME280;44557;51.862;19.378;2023-03-13T07:44:58;98363.45;;;6.24;99.47
58785;BME280;44557;51.862;19.378;2023-03-13T07:46:59;98358.51;;;6.24;99.48
58785;BME280;44557;51.862;19.378;2023-03-13T07:49:00;98355.21;;;6.33;99.17
58785;BME280;44557;51.862;19.378;2023-03-13T07:51:03;98356.45;;;6.53;98.84
58785;BME280;44557;51.862;19.378;2023-03-13T07:53:05;98356.52;;;6.50;97.92
58785;BME280;44557;51.862;19.378;2023-03-13T07:55:06;98352.00;;;6.60;97.73
58785;BME280;44557;51.862;19.378;2023-03-13T07:57:07;98349.02;;;6.75;97.31
58785;BME280;44557;51.862;19.378;2023-03-13T07:59:08;98342.64;;;6.84;96.64
58785;BME280;44557;51.862;19.378;2023-03-13T08:01:22;98341.65;;;6.99;96.09
58785;BME280;44557;51.862;19.378;2023-03-13T08:03:24;98333.23;;;7.09;95.31
58785;BME280;44557;51.862;19.378;2023-03-13T08:05:25;98331.50;;;7.27;95.15
58785;BME280;44557;51.862;19.378;2023-03-13T08:07:26;98335.88;;;7.36;94.21
58785;BME280;44557;51.862;19.378;2023-03-13T08:09:27;98333.59;;;7.41;93.57
58785;BME280;44557;51.862;19.378;2023-03-13T08:11:28;98338.91;;;7.41;93.55
58785;BME280;44557;51.862;19.378;2023-03-13T08:13:31;98335.55;;;7.58;93.16
58785;BME280;44557;51.862;19.378;2023-03-13T08:15:32;98333.23;;;7.65;93.02
58785;BME280;44557;51.862;19.378;2023-03-13T08:17:33;98324.89;;;7.58;92.75
58785;BME280;44557;51.862;19.378;2023-03-13T08:19:34;98323.94;;;7.85;92.42
58785;BME280;44557;51.862;19.378;2023-03-13T08:21:36;98320.85;;;7.96;91.59
58785;BME280;44557;51.862;19.378;2023-03-13T08:23:38;98318.04;;;7.84;91.59
58785;BME280;44557;51.862;19.378;2023-03-13T08:25:38;98319.98;;;7.92;91.26
58785;BME280;44557;51.862;19.378;2023-03-13T08:27:39;98316.89;;;7.85;91.69
58785;BME280;44557;51.862;19.378;2023-03-13T08:29:40;98309.70;;;7.95;91.54
58785;BME280;44557;51.862;19.378;2023-03-13T08:31:47;98304.79;;;8.05;91.05
58785;BME280;44557;51.862;19.378;2023-03-13T08:33:49;98304.48;;;8.06;90.80
58785;BME280;44557;51.862;19.378;2023-03-13T08:35:50;98299.79;;;8.13;90.46
58785;BME280;44557;51.862;19.378;2023-03-13T08:37:51;98298.08;;;8.10;90.21
58785;BME280;44557;51.862;19.378;2023-03-13T08:39:52;98298.91;;;8.19;90.01
58785;BME280;44557;51.862;19.378;2023-03-13T08:41:56;98298.95;;;8.11;90.48
58785;BME280;44557;51.862;19.378;2023-03-13T08:43:57;98298.89;;;8.21;90.06
58785;BME280;44557;51.862;19.378;2023-03-13T08:45:58;98292.00;;;8.15;89.98
58785;BME280;44557;51.862;19.378;2023-03-13T08:47:59;98293.58;;;8.28;89.12
58785;BME280;44557;51.862;19.378;2023-03-13T08:50:00;98291.47;;;8.41;88.09
58785;BME280;44557;51.862;19.378;2023-03-13T08:52:03;98287.21;;;8.26;89.05
58785;BME280;44557;51.862;19.378;2023-03-13T08:54:05;98281.39;;;8.46;88.41
58785;BME280;44557;51.862;19.378;2023-03-13T08:56:12;98282.30;;;8.37;88.30
58785;BME280;44557;51.862;19.378;2023-03-13T08:58:14;98279.27;;;8.39;88.68
58785;BME280;44557;51.862;19.378;2023-03-13T09:00:15;98273.55;;;8.46;88.10
58785;BME280;44557;51.862;19.378;2023-03-13T09:02:16;98271.70;;;8.34;88.88
58785;BME280;44557;51.862;19.378;2023-03-13T09:04:19;98269.98;;;8.34;89.08
58785;BME280;44557;51.862;19.378;2023-03-13T09:06:20;98277.52;;;8.42;89.45
58785;BME280;44557;51.862;19.378;2023-03-13T09:08:21;98275.55;;;8.45;88.71
58785;BME280;44557;51.862;19.378;2023-03-13T09:10:22;98274.34;;;8.36;89.30
58785;BME280;44557;51.862;19.378;2023-03-13T09:12:23;98268.98;;;8.48;88.21
58785;BME280;44557;51.862;19.378;2023-03-13T09:14:24;98269.80;;;8.50;88.19
58785;BME280;44557;51.862;19.378;2023-03-13T09:16:27;98267.02;;;8.53;88.21
58785;BME280;44557;51.862;19.378;2023-03-13T09:18:29;98266.50;;;8.54;87.80
58785;BME280;44557;51.862;19.378;2023-03-13T09:20:30;98265.27;;;8.69;87.38
58785;BME280;44557;51.862;19.378;2023-03-13T09:22:31;98250.45;;;8.62;87.32
58785;BME280;44557;51.862;19.378;2023-03-13T09:24:32;98255.05;;;8.72;86.93
58785;BME280;44557;51.862;19.378;2023-03-13T09:26:34;98253.56;;;8.77;86.86
58785;BME280;44557;51.862;19.378;2023-03-13T09:28:35;98247.80;;;8.90;86.19
58785;BME280;44557;51.862;19.378;2023-03-13T09:30:36;98247.55;;;8.97;85.58
58785;BME280;44557;51.862;19.378;2023-03-13T09:32:37;98251.53;;;9.09;85.11
58785;BME280;44557;51.862;19.378;2023-03-13T09:34:38;98248.91;;;9.24;83.76
58785;BME280;44557;51.862;19.378;2023-03-13T09:36:39;98253.57;;;9.29;83.54
58785;BME280;44557;51.862;19.378;2023-03-13T09:38:41;98238.50;;;9.37;82.95
58785;BME280;44557;51.862;19.378;2023-03-13T09:40:45;98255.06;;;9.46;82.15
58785;BME280;44557;51.862;19.378;2023-03-13T09:42:52;98248.88;;;9.61;81.10
58785;BME280;44557;51.862;19.378;2023-03-13T09:45:05;98255.02;;;9.98;79.62
58785;BME280;44557;51.862;19.378;2023-03-13T09:47:13;98251.31;;;10.18;79.06
58785;BME280;44557;51.862;19.378;2023-03-13T09:49:48;98244.09;;;10.09;78.86
58785;BME280;44557;51.862;19.378;2023-03-13T09:51:57;98235.89;;;9.93;79.03
58785;BME280;44557;51.862;19.378;2023-03-13T09:54:07;98232.86;;;10.09;79.04
58785;BME280;44557;51.862;19.378;2023-03-13T09:56:15;98229.81;;;10.15;78.28
58785;BME280;44557;51.862;19.378;2023-03-13T09:58:23;98225.20;;;10.03;78.42
58785;BME280;44557;51.862;19.378;2023-03-13T10:00:37;98212.45;;;10.11;77.49
58785;BME280;44557;51.862;19.378;2023-03-13T10:02:43;98211.06;;;10.13;77.85
58785;BME280;44557;51.862;19.378;2023-03-13T10:04:50;98208.63;;;10.23;77.23
58785;BME280;44557;51.862;19.378;2023-03-13T10:06:52;98204.64;;;10.18;77.13
58785;BME280;44557;51.862;19.378;2023-03-13T10:08:53;98198.27;;;10.24;76.56
58785;BME280;44557;51.862;19.378;2023-03-13T10:13:17;98192.10;;;10.22;76.38
58785;BME280;44557;51.862;19.378;2023-03-13T10:15:41;98180.95;;;10.35;75.92
58785;BME280;44557;51.862;19.378;2023-03-13T10:17:45;98184.29;;;10.38;76.84
58785;BME280;44557;51.862;19.378;2023-03-13T10:19:53;98183.75;;;10.40;76.78
58785;BME280;44557;51.862;19.378;2023-03-13T10:21:55;98178.27;;;10.41;76.04
58785;BME280;44557;51.862;19.378;2023-03-13T10:24:01;98170.16;;;10.48;75.70
58785;BME280;44557;51.862;19.378;2023-03-13T10:26:05;98163.10;;;10.36;74.65
58785;BME280;44557;51.862;19.378;2023-03-13T10:28:12;98159.52;;;10.26;75.54
58785;BME280;44557;51.862;19.378;2023-03-13T10:30:22;98152.83;;;10.25;75.92
58785;BME280;44557;51.862;19.378;2023-03-13T10:32:25;98150.46;;;10.14;75.52
58785;BME280;44557;51.862;19.378;2023-03-13T10:34:29;98149.23;;;10.26;75.01
58785;BME280;44557;51.862;19.378;2023-03-13T10:36:46;98144.80;;;10.14;75.39
58785;BME280;44557;51.862;19.378;2023-03-13T10:38:52;98133.52;;;10.11;75.18
58785;BME280;44557;51.862;19.378;2023-03-13T10:41:05;98140.56;;;10.14;75.33
58785;BME280;44557;51.862;19.378;2023-03-13T10:43:19;98133.89;;;10.33;75.10
58785;BME280;44557;51.862;19.378;2023-03-13T10:45:21;98127.21;;;10.53;73.71
58785;BME280;44557;51.862;19.378;2023-03-13T10:47:23;98127.13;;;10.67;73.18
58785;BME280;44557;51.862;19.378;2023-03-13T10:49:27;98123.02;;;10.64;73.32
58785;BME280;44557;51.862;19.378;2023-03-13T10:51:39;98113.43;;;10.60;73.36
58785;BME280;44557;51.862;19.378;2023-03-13T10:53:40;98102.59;;;10.47;73.66